sensor_id;sensor_type;location;lat;lon;timestamp;temperature;humidity
3727;DHT22;1879;45.876;12.300;2024-02-04T00:02:09;6.70;99.90
3727;DHT22;1879;45.876;12.300;2024-02-04T00:04:41;6.70;99.90
3727;DHT22;1879;45.876;12.300;2024-02-04T00:07:08;6.70;99.90
3727;DHT22;1879;45.876;12.300;2024-02-04T00:09:34;6.50;1.00
3727;DHT22;1879;45.876;12.300;2024-02-04T00:12:01;6.50;1.00
3727;DHT22;1879;45.876;12.300;2024-02-04T00:14:29;6.60;1.00
3727;DHT22;1879;45.876;12.300;2024-02-04T00:16:56;6.60;99.90
3727;DHT22;1879;45.876;12.300;2024-02-04T00:19:23;6.50;1.00
3727;DHT22;1879;45.876;12.300;2024-02-04T00:21:52;6.50;99.90
3727;DHT22;1879;45.876;12.300;2024-02-04T00:24:19;6.50;99.90
3727;DHT22;1879;45.876;12.300;2024-02-04T00:26:46;6.50;99.90
3727;DHT22;1879;45.876;12.300;2024-02-04T00:29:12;6.40;99.90
3727;DHT22;1879;45.876;12.300;2024-02-04T00:31:39;6.30;99.90
3727;DHT22;1879;45.876;12.300;2024-02-04T00:34:05;6.30;99.90
3727;DHT22;1879;45.876;12.300;2024-02-04T00:36:32;6.30;99.90
3727;DHT22;1879;45.876;12.300;2024-02-04T00:39:00;6.30;99.90
3727;DHT22;1879;45.876;12.300;2024-02-04T00:41:27;6.30;99.90
3727;DHT22;1879;45.876;12.300;2024-02-04T00:43:54;6.30;99.90
3727;DHT22;1879;45.876;12.300;2024-02-04T00:46:21;6.40;99.90
3727;DHT22;1879;45.876;12.300;2024-02-04T00:48:48;6.30;99.90
3727;DHT22;1879;45.876;12.300;2024-02-04T00:51:15;6.30;99.90
3727;DHT22;1879;45.876;12.300;2024-02-04T00:53:43;6.30;99.90
3727;DHT22;1879;45.876;12.300;2024-02-04T00:56:11;6.20;1.00
3727;DHT22;1879;45.876;12.300;2024-02-04T00:58:39;6.20;1.00
3727;DHT22;1879;45.876;12.300;2024-02-04T01:01:06;6.20;99.90
3727;DHT22;1879;45.876;12.300;2024-02-04T01:03:33;6.20;99.90
3727;DHT22;1879;45.876;12.300;2024-02-04T01:06:00;6.10;1.00
3727;DHT22;1879;45.876;12.300;2024-02-04T01:08:27;6.10;1.00
3727;DHT22;1879;45.876;12.300;2024-02-04T01:10:53;6.10;1.00
3727;DHT22;1879;45.876;12.300;2024-02-04T01:13:22;6.10;1.00
3727;DHT22;1879;45.876;12.300;2024-02-04T01:15:49;6.10;1.00
3727;DHT22;1879;45.876;12.300;2024-02-04T01:18:16;6.00;1.00
3727;DHT22;1879;45.876;12.300;2024-02-04T01:20:43;6.00;1.00
3727;DHT22;1879;45.876;12.300;2024-02-04T01:23:10;6.00;1.00
3727;DHT22;1879;45.876;12.300;2024-02-04T01:25:38;6.00;1.00
3727;DHT22;1879;45.876;12.300;2024-02-04T01:28:05;5.90;1.00
3727;DHT22;1879;45.876;12.300;2024-02-04T01:30:33;5.90;11.30
3727;DHT22;1879;45.876;12.300;2024-02-04T01:33:00;6.00;1.00
3727;DHT22;1879;45.876;12.300;2024-02-04T01:35:27;6.00;1.00
3727;DHT22;1879;45.876;12.300;2024-02-04T01:37:54;5.90;1.00
3727;DHT22;1879;45.876;12.300;2024-02-04T01:40:21;5.90;15.20
3727;DHT22;1879;45.876;12.300;2024-02-04T01:42:48;6.00;1.00
3727;DHT22;1879;45.876;12.300;2024-02-04T01:45:15;6.00;24.90
3727;DHT22;1879;45.876;12.300;2024-02-04T01:47:43;6.00;1.00
3727;DHT22;1879;45.876;12.300;2024-02-04T01:50:10;6.00;80.70
3727;DHT22;1879;45.876;12.300;2024-02-04T01:52:39;6.10;99.90
3727;DHT22;1879;45.876;12.300;2024-02-04T01:55:08;6.10;1.00
3727;DHT22;1879;45.876;12.300;2024-02-04T01:57:36;6.10;1.00
3727;DHT22;1879;45.876;12.300;2024-02-04T02:00:04;6.10;1.00
3727;DHT22;1879;45.876;12.300;2024-02-04T02:02:34;6.00;57.90
3727;DHT22;1879;45.876;12.300;2024-02-04T02:05:07;6.00;48.80
3727;DHT22;1879;45.876;12.300;2024-02-04T02:07:34;6.00;7.90
3727;DHT22;1879;45.876;12.300;2024-02-04T02:10:01;5.90;1.00
3727;DHT22;1879;45.876;12.300;2024-02-04T02:12:35;5.90;5.40
3727;DHT22;1879;45.876;12.300;2024-02-04T02:15:09;5.80;75.10
3727;DHT22;1879;45.876;12.300;2024-02-04T02:17:41;5.70;99.90
3727;DHT22;1879;45.876;12.300;2024-02-04T02:20:20;5.60;99.90
3727;DHT22;1879;45.876;12.300;2024-02-04T02:22:49;5.60;99.90
3727;DHT22;1879;45.876;12.300;2024-02-04T02:25:20;5.70;99.90
3727;DHT22;1879;45.876;12.300;2024-02-04T02:27:48;5.70;99.90
3727;DHT22;1879;45.876;12.300;2024-02-04T02:30:16;5.50;99.90
3727;DHT22;1879;45.876;12.300;2024-02-04T02:32:44;5.50;99.90
3727;DHT22;1879;45.876;12.300;2024-02-04T02:35:12;5.40;99.90
3727;DHT22;1879;45.876;12.300;2024-02-04T02:37:43;5.40;99.90
3727;DHT22;1879;45.876;12.300;2024-02-04T02:40:16;5.30;99.90
3727;DHT22;1879;45.876;12.300;2024-02-04T02:42:48;5.30;99.90
3727;DHT22;1879;45.876;12.300;2024-02-04T02:45:16;5.30;1.00
3727;DHT22;1879;45.876;12.300;2024-02-04T02:47:44;5.40;1.00
3727;DHT22;1879;45.876;12.300;2024-02-04T02:50:13;5.50;99.90
3727;DHT22;1879;45.876;12.300;2024-02-04T02:52:40;5.50;99.90
3727;DHT22;1879;45.876;12.300;2024-02-04T02:55:07;5.60;99.90
3727;DHT22;1879;45.876;12.300;2024-02-04T02:57:34;5.50;99.90
3727;DHT22;1879;45.876;12.300;2024-02-04T03:00:03;5.40;99.90
3727;DHT22;1879;45.876;12.300;2024-02-04T03:02:31;5.30;99.90
3727;DHT22;1879;45.876;12.300;2024-02-04T03:04:58;5.20;99.90
3727;DHT22;1879;45.876;12.300;2024-02-04T03:07:25;5.10;1.00
3727;DHT22;1879;45.876;12.300;2024-02-04T03:09:53;5.00;1.00
3727;DHT22;1879;45.876;12.300;2024-02-04T03:12:19;5.00;1.00
3727;DHT22;1879;45.876;12.300;2024-02-04T03:14:46;5.10;99.90
3727;DHT22;1879;45.876;12.300;2024-02-04T03:17:15;5.00;99.90
3727;DHT22;1879;45.876;12.300;2024-02-04T03:19:46;5.00;99.90
3727;DHT22;1879;45.876;12.300;2024-02-04T03:22:13;4.90;1.00
3727;DHT22;1879;45.876;12.300;2024-02-04T03:24:40;4.90;1.00
3727;DHT22;1879;45.876;12.300;2024-02-04T03:27:07;4.90;1.00
3727;DHT22;1879;45.876;12.300;2024-02-04T03:29:34;4.90;99.90
3727;DHT22;1879;45.876;12.300;2024-02-04T03:32:02;4.90;99.90
3727;DHT22;1879;45.876;12.300;2024-02-04T03:34:30;4.90;99.90
3727;DHT22;1879;45.876;12.300;2024-02-04T03:36:57;4.80;99.90
3727;DHT22;1879;45.876;12.300;2024-02-04T03:39:24;4.70;1.00
3727;DHT22;1879;45.876;12.300;2024-02-04T03:41:51;4.70;1.00
3727;DHT22;1879;45.876;12.300;2024-02-04T03:44:18;4.70;1.00
3727;DHT22;1879;45.876;12.300;2024-02-04T03:46:47;4.60;1.00
3727;DHT22;1879;45.876;12.300;2024-02-04T03:49:14;4.60;99.90
3727;DHT22;1879;45.876;12.300;2024-02-04T03:51:43;4.50;1.00
3727;DHT22;1879;45.876;12.300;2024-02-04T03:54:10;4.60;1.00
3727;DHT22;1879;45.876;12.300;2024-02-04T03:56:37;4.60;1.00
3727;DHT22;1879;45.876;12.300;2024-02-04T03:59:03;4.60;1.00
3727;DHT22;1879;45.876;12.300;2024-02-04T04:01:32;4.70;1.00
3727;DHT22;1879;45.876;12.300;2024-02-04T04:03:59;4.60;1.00
3727;DHT22;1879;45.876;12.300;2024-02-04T04:06:26;4.70;1.00
3727;DHT22;1879;45.876;12.300;2024-02-04T04:08:54;4.60;1.00
3727;DHT22;1879;45.876;12.300;2024-02-04T04:11:24;4.50;1.00
3727;DHT22;1879;45.876;12.300;2024-02-04T04:13:51;4.50;1.00
3727;DHT22;1879;45.876;12.300;2024-02-04T04:16:21;4.40;1.00
3727;DHT22;1879;45.876;12.300;2024-02-04T04:18:48;4.40;1.00
3727;DHT22;1879;45.876;12.300;2024-02-04T04:21:15;4.30;1.00
3727;DHT22;1879;45.876;12.300;2024-02-04T04:23:42;4.30;1.00
3727;DHT22;1879;45.876;12.300;2024-02-04T04:26:10;4.30;1.00
3727;DHT22;1879;45.876;12.300;2024-02-04T04:28:37;4.30;1.00
3727;DHT22;1879;45.876;12.300;2024-02-04T04:31:04;4.30;1.00
3727;DHT22;1879;45.876;12.300;2024-02-04T04:33:31;4.30;1.00
3727;DHT22;1879;45.876;12.300;2024-02-04T04:35:58;4.30;1.00
3727;DHT22;1879;45.876;12.300;2024-02-04T04:38:25;4.30;1.00
3727;DHT22;1879;45.876;12.300;2024-02-04T04:40:52;4.20;1.00
3727;DHT22;1879;45.876;12.300;2024-02-04T04:43:20;4.20;1.00
3727;DHT22;1879;45.876;12.300;2024-02-04T04:45:47;4.10;1.00
3727;DHT22;1879;45.876;12.300;2024-02-04T04:48:14;4.10;1.00
3727;DHT22;1879;45.876;12.300;2024-02-04T04:50:41;4.10;1.00
3727;DHT22;1879;45.876;12.300;2024-02-04T04:53:08;4.00;1.00
3727;DHT22;1879;45.876;12.300;2024-02-04T04:55:35;4.00;1.00
3727;DHT22;1879;45.876;12.300;2024-02-04T04:58:02;4.00;1.00
3727;DHT22;1879;45.876;12.300;2024-02-04T05:00:30;4.00;1.00
3727;DHT22;1879;45.876;12.300;2024-02-04T05:02:57;3.90;1.00
3727;DHT22;1879;45.876;12.300;2024-02-04T05:05:24;3.90;1.00
3727;DHT22;1879;45.876;12.300;2024-02-04T05:07:51;3.90;1.00
3727;DHT22;1879;45.876;12.300;2024-02-04T05:10:18;3.90;1.00
3727;DHT22;1879;45.876;12.300;2024-02-04T05:12:45;3.90;1.00
3727;DHT22;1879;45.876;12.300;2024-02-04T05:15:12;3.90;1.00
3727;DHT22;1879;45.876;12.300;2024-02-04T05:17:40;4.00;1.00
3727;DHT22;1879;45.876;12.300;2024-02-04T05:20:07;3.90;1.00
3727;DHT22;1879;45.876;12.300;2024-02-04T05:22:34;4.00;1.00
3727;DHT22;1879;45.876;12.300;2024-02-04T05:25:01;3.90;1.00
3727;DHT22;1879;45.876;12.300;2024-02-04T05:27:30;3.90;1.00
3727;DHT22;1879;45.876;12.300;2024-02-04T05:29:57;3.90;1.00
3727;DHT22;1879;45.876;12.300;2024-02-04T05:32:24;3.90;1.00
3727;DHT22;1879;45.876;12.300;2024-02-04T05:34:52;3.90;1.00
3727;DHT22;1879;45.876;12.300;2024-02-04T05:37:19;3.90;1.00
3727;DHT22;1879;45.876;12.300;2024-02-04T05:39:46;3.90;1.00
3727;DHT22;1879;45.876;12.300;2024-02-04T05:42:13;3.90;1.00
3727;DHT22;1879;45.876;12.300;2024-02-04T05:44:40;3.80;1.00
3727;DHT22;1879;45.876;12.300;2024-02-04T05:47:07;3.80;1.00
3727;DHT22;1879;45.876;12.300;2024-02-04T05:49:33;3.80;1.00
3727;DHT22;1879;45.876;12.300;2024-02-04T05:52:02;3.80;1.00
3727;DHT22;1879;45.876;12.300;2024-02-04T05:54:29;3.70;1.00
3727;DHT22;1879;45.876;12.300;2024-02-04T05:56:56;3.50;1.00
3727;DHT22;1879;45.876;12.300;2024-02-04T05:59:22;3.60;1.00
3727;DHT22;1879;45.876;12.300;2024-02-04T06:01:49;3.50;1.00
3727;DHT22;1879;45.876;12.300;2024-02-04T06:04:16;3.50;1.00
3727;DHT22;1879;45.876;12.300;2024-02-04T06:06:43;3.50;1.00
3727;DHT22;1879;45.876;12.300;2024-02-04T06:09:11;3.50;1.00
3727;DHT22;1879;45.876;12.300;2024-02-04T06:11:39;3.50;1.00
3727;DHT22;1879;45.876;12.300;2024-02-04T06:14:06;3.40;1.00
3727;DHT22;1879;45.876;12.300;2024-02-04T06:16:33;3.40;1.00
3727;DHT22;1879;45.876;12.300;2024-02-04T06:19:00;3.60;1.00
3727;DHT22;1879;45.876;12.300;2024-02-04T06:21:27;3.60;1.00
3727;DHT22;1879;45.876;12.300;2024-02-04T06:23:54;3.60;1.00
3727;DHT22;1879;45.876;12.300;2024-02-04T06:26:22;3.50;1.00
3727;DHT22;1879;45.876;12.300;2024-02-04T06:28:49;3.60;1.00
3727;DHT22;1879;45.876;12.300;2024-02-04T06:31:16;3.60;1.00
3727;DHT22;1879;45.876;12.300;2024-02-04T06:33:44;3.60;1.00
3727;DHT22;1879;45.876;12.300;2024-02-04T06:36:11;3.50;1.00
3727;DHT22;1879;45.876;12.300;2024-02-04T06:38:37;3.60;1.00
3727;DHT22;1879;45.876;12.300;2024-02-04T06:41:04;3.50;1.00
3727;DHT22;1879;45.876;12.300;2024-02-04T06:43:33;3.50;1.00
3727;DHT22;1879;45.876;12.300;2024-02-04T06:46:03;3.40;1.00
3727;DHT22;1879;45.876;12.300;2024-02-04T06:48:30;3.40;1.00
3727;DHT22;1879;45.876;12.300;2024-02-04T06:50:57;3.40;1.00
3727;DHT22;1879;45.876;12.300;2024-02-04T06:53:24;3.40;1.00
3727;DHT22;1879;45.876;12.300;2024-02-04T06:55:51;3.40;1.00
3727;DHT22;1879;45.876;12.300;2024-02-04T06:58:18;3.40;1.00
3727;DHT22;1879;45.876;12.300;2024-02-04T07:00:46;3.50;1.00
3727;DHT22;1879;45.876;12.300;2024-02-04T07:03:13;3.50;1.00
3727;DHT22;1879;45.876;12.300;2024-02-04T07:05:40;3.60;1.00
3727;DHT22;1879;45.876;12.300;2024-02-04T07:08:08;3.70;1.00
3727;DHT22;1879;45.876;12.300;2024-02-04T07:10:35;3.80;1.00
3727;DHT22;1879;45.876;12.300;2024-02-04T07:13:02;3.80;1.00
3727;DHT22;1879;45.876;12.300;2024-02-04T07:15:29;3.70;1.00
3727;DHT22;1879;45.876;12.300;2024-02-04T07:17:57;3.60;1.00
3727;DHT22;1879;45.876;12.300;2024-02-04T07:20:24;3.60;1.00
3727;DHT22;1879;45.876;12.300;2024-02-04T07:22:51;3.70;1.00
3727;DHT22;1879;45.876;12.300;2024-02-04T07:25:18;3.80;1.00
3727;DHT22;1879;45.876;12.300;2024-02-04T07:27:45;3.80;1.00
3727;DHT22;1879;45.876;12.300;2024-02-04T07:30:12;3.90;1.00
3727;DHT22;1879;45.876;12.300;2024-02-04T07:32:39;3.90;1.00
3727;DHT22;1879;45.876;12.300;2024-02-04T07:35:08;3.90;1.00
3727;DHT22;1879;45.876;12.300;2024-02-04T07:37:36;4.10;1.00
3727;DHT22;1879;45.876;12.300;2024-02-04T07:40:03;4.20;1.00
3727;DHT22;1879;45.876;12.300;2024-02-04T07:42:31;4.30;1.00
3727;DHT22;1879;45.876;12.300;2024-02-04T07:44:57;4.40;1.00
3727;DHT22;1879;45.876;12.300;2024-02-04T07:47:25;4.50;1.00
3727;DHT22;1879;45.876;12.300;2024-02-04T07:49:51;4.60;1.00
3727;DHT22;1879;45.876;12.300;2024-02-04T07:52:20;4.60;1.00
3727;DHT22;1879;45.876;12.300;2024-02-04T07:54:47;4.80;1.00
3727;DHT22;1879;45.876;12.300;2024-02-04T07:57:14;4.90;1.00
3727;DHT22;1879;45.876;12.300;2024-02-04T07:59:40;5.00;1.00
3727;DHT22;1879;45.876;12.300;2024-02-04T08:02:08;5.00;1.00
3727;DHT22;1879;45.876;12.300;2024-02-04T08:04:35;5.10;1.00
3727;DHT22;1879;45.876;12.300;2024-02-04T08:07:02;5.30;1.00
3727;DHT22;1879;45.876;12.300;2024-02-04T08:09:30;5.40;1.00
3727;DHT22;1879;45.876;12.300;2024-02-04T08:11:57;5.50;99.90
3727;DHT22;1879;45.876;12.300;2024-02-04T08:14:38;5.50;99.90
3727;DHT22;1879;45.876;12.300;2024-02-04T08:17:05;5.60;99.90
3727;DHT22;1879;45.876;12.300;2024-02-04T08:19:32;5.60;1.00
3727;DHT22;1879;45.876;12.300;2024-02-04T08:21:59;5.50;1.00
3727;DHT22;1879;45.876;12.300;2024-02-04T08:24:26;5.60;1.00
3727;DHT22;1879;45.876;12.300;2024-02-04T08:26:56;5.60;99.90
3727;DHT22;1879;45.876;12.300;2024-02-04T08:29:23;5.60;1.00
3727;DHT22;1879;45.876;12.300;2024-02-04T08:31:52;5.70;1.00
3727;DHT22;1879;45.876;12.300;2024-02-04T08:34:19;5.80;1.00
3727;DHT22;1879;45.876;12.300;2024-02-04T08:36:49;5.90;99.90
3727;DHT22;1879;45.876;12.300;2024-02-04T08:39:16;6.00;1.00
3727;DHT22;1879;45.876;12.300;2024-02-04T08:41:43;6.10;99.90
3727;DHT22;1879;45.876;12.300;2024-02-04T08:44:11;6.20;99.90
3727;DHT22;1879;45.876;12.300;2024-02-04T08:46:38;6.30;99.90
3727;DHT22;1879;45.876;12.300;2024-02-04T08:49:05;6.40;99.90
3727;DHT22;1879;45.876;12.300;2024-02-04T08:51:32;6.50;99.90
3727;DHT22;1879;45.876;12.300;2024-02-04T08:53:59;6.60;99.90
3727;DHT22;1879;45.876;12.300;2024-02-04T08:56:26;6.70;99.90
3727;DHT22;1879;45.876;12.300;2024-02-04T08:58:53;6.80;99.90
3727;DHT22;1879;45.876;12.300;2024-02-04T09:01:21;6.80;99.90
3727;DHT22;1879;45.876;12.300;2024-02-04T09:03:48;7.00;99.90
3727;DHT22;1879;45.876;12.300;2024-02-04T09:06:15;7.10;99.90
3727;DHT22;1879;45.876;12.300;2024-02-04T09:08:42;7.20;15.70
3727;DHT22;1879;45.876;12.300;2024-02-04T09:11:09;7.30;1.00
3727;DHT22;1879;45.876;12.300;2024-02-04T09:13:36;7.50;1.00
3727;DHT22;1879;45.876;12.300;2024-02-04T09:16:03;7.60;99.90
3727;DHT22;1879;45.876;12.300;2024-02-04T09:18:31;7.70;99.90
3727;DHT22;1879;45.876;12.300;2024-02-04T09:20:58;7.80;99.90
3727;DHT22;1879;45.876;12.300;2024-02-04T09:23:25;7.90;1.00
3727;DHT22;1879;45.876;12.300;2024-02-04T09:25:52;8.00;99.90
3727;DHT22;1879;45.876;12.300;2024-02-04T09:28:19;8.10;99.90
3727;DHT22;1879;45.876;12.300;2024-02-04T09:30:46;8.10;3.10
3727;DHT22;1879;45.876;12.300;2024-02-04T09:33:13;8.30;27.20
3727;DHT22;1879;45.876;12.300;2024-02-04T09:35:42;8.40;99.90
3727;DHT22;1879;45.876;12.300;2024-02-04T09:38:09;8.50;92.10
3727;DHT22;1879;45.876;12.300;2024-02-04T09:40:37;8.70;17.40
3727;DHT22;1879;45.876;12.300;2024-02-04T09:43:05;8.80;1.00
3727;DHT22;1879;45.876;12.300;2024-02-04T09:45:32;9.00;1.00
3727;DHT22;1879;45.876;12.300;2024-02-04T09:48:00;9.10;99.90
3727;DHT22;1879;45.876;12.300;2024-02-04T09:50:27;9.10;1.00
3727;DHT22;1879;45.876;12.300;2024-02-04T09:52:59;9.20;1.00
3727;DHT22;1879;45.876;12.300;2024-02-04T09:55:27;9.30;99.90
3727;DHT22;1879;45.876;12.300;2024-02-04T09:57:55;9.30;1.00
3727;DHT22;1879;45.876;12.300;2024-02-04T10:00:23;9.30;99.90
3727;DHT22;1879;45.876;12.300;2024-02-04T10:02:54;9.40;1.00
3727;DHT22;1879;45.876;12.300;2024-02-04T10:05:22;9.50;1.00
3727;DHT22;1879;45.876;12.300;2024-02-04T10:07:49;9.60;1.00
3727;DHT22;1879;45.876;12.300;2024-02-04T10:10:17;9.70;1.00
3727;DHT22;1879;45.876;12.300;2024-02-04T10:12:44;9.80;1.00
3727;DHT22;1879;45.876;12.300;2024-02-04T10:15:11;9.90;1.00
3727;DHT22;1879;45.876;12.300;2024-02-04T10:17:42;10.00;1.00
3727;DHT22;1879;45.876;12.300;2024-02-04T10:20:10;10.00;1.00
3727;DHT22;1879;45.876;12.300;2024-02-04T10:22:38;10.10;1.00
3727;DHT22;1879;45.876;12.300;2024-02-04T10:25:08;10.20;99.90
3727;DHT22;1879;45.876;12.300;2024-02-04T10:27:40;10.30;99.90
3727;DHT22;1879;45.876;12.300;2024-02-04T10:30:08;10.40;99.90
3727;DHT22;1879;45.876;12.300;2024-02-04T10:35:02;10.70;1.00
3727;DHT22;1879;45.876;12.300;2024-02-04T10:37:29;10.80;1.00
3727;DHT22;1879;45.876;12.300;2024-02-04T10:39:56;10.90;1.00
3727;DHT22;1879;45.876;12.300;2024-02-04T10:42:26;11.00;1.00
3727;DHT22;1879;45.876;12.300;2024-02-04T10:44:55;11.20;1.00
3727;DHT22;1879;45.876;12.300;2024-02-04T10:47:28;11.30;1.00
3727;DHT22;1879;45.876;12.300;2024-02-04T10:49:58;11.40;99.90
3727;DHT22;1879;45.876;12.300;2024-02-04T10:52:27;11.50;99.90
3727;DHT22;1879;45.876;12.300;2024-02-04T10:54:55;11.70;99.90
3727;DHT22;1879;45.876;12.300;2024-02-04T10:57:22;11.80;1.00
3727;DHT22;1879;45.876;12.300;2024-02-04T10:59:51;12.00;1.00
3727;DHT22;1879;45.876;12.300;2024-02-04T11:02:20;12.10;1.00
3727;DHT22;1879;45.876;12.300;2024-02-04T11:04:49;12.20;1.00
3727;DHT22;1879;45.876;12.300;2024-02-04T11:07:17;12.30;1.00
3727;DHT22;1879;45.876;12.300;2024-02-04T11:09:46;12.30;1.00
3727;DHT22;1879;45.876;12.300;2024-02-04T11:12:17;12.50;1.00
3727;DHT22;1879;45.876;12.300;2024-02-04T11:14:48;12.60;1.00
3727;DHT22;1879;45.876;12.300;2024-02-04T11:17:52;12.80;1.00
3727;DHT22;1879;45.876;12.300;2024-02-04T11:20:43;13.00;1.00
3727;DHT22;1879;45.876;12.300;2024-02-04T11:23:27;13.00;99.90
3727;DHT22;1879;45.876;12.300;2024-02-04T11:25:58;13.20;99.90
3727;DHT22;1879;45.876;12.300;2024-02-04T11:28:26;13.40;99.90
3727;DHT22;1879;45.876;12.300;2024-02-04T11:30:54;13.60;99.90
3727;DHT22;1879;45.876;12.300;2024-02-04T11:33:23;13.80;99.90
3727;DHT22;1879;45.876;12.300;2024-02-04T11:36:02;14.10;99.90
3727;DHT22;1879;45.876;12.300;2024-02-04T11:38:30;14.50;99.90
3727;DHT22;1879;45.876;12.300;2024-02-04T11:40:58;15.00;99.90
3727;DHT22;1879;45.876;12.300;2024-02-04T11:43:25;15.70;99.90
3727;DHT22;1879;45.876;12.300;2024-02-04T11:45:52;16.50;15.30
3727;DHT22;1879;45.876;12.300;2024-02-04T11:48:20;17.50;1.00
3727;DHT22;1879;45.876;12.300;2024-02-04T11:50:57;18.40;1.00
3727;DHT22;1879;45.876;12.300;2024-02-04T11:53:26;18.40;1.00
3727;DHT22;1879;45.876;12.300;2024-02-04T11:55:54;18.00;1.00
3727;DHT22;1879;45.876;12.300;2024-02-04T11:58:21;17.90;1.00
3727;DHT22;1879;45.876;12.300;2024-02-04T12:00:52;17.80;1.00
3727;DHT22;1879;45.876;12.300;2024-02-04T12:03:28;18.00;1.00
3727;DHT22;1879;45.876;12.300;2024-02-04T12:05:57;18.30;1.00
3727;DHT22;1879;45.876;12.300;2024-02-04T12:08:25;18.00;1.00
3727;DHT22;1879;45.876;12.300;2024-02-04T12:10:53;17.60;1.00
3727;DHT22;1879;45.876;12.300;2024-02-04T12:13:20;17.20;1.00
3727;DHT22;1879;45.876;12.300;2024-02-04T12:15:47;17.00;1.00
3727;DHT22;1879;45.876;12.300;2024-02-04T12:18:15;17.20;1.00
3727;DHT22;1879;45.876;12.300;2024-02-04T12:20:46;17.20;1.00
3727;DHT22;1879;45.876;12.300;2024-02-04T12:23:15;17.30;1.00
3727;DHT22;1879;45.876;12.300;2024-02-04T12:25:43;17.10;1.00
3727;DHT22;1879;45.876;12.300;2024-02-04T12:28:10;17.10;1.00
3727;DHT22;1879;45.876;12.300;2024-02-04T12:30:37;17.30;1.00
3727;DHT22;1879;45.876;12.300;2024-02-04T12:33:05;18.10;1.00
3727;DHT22;1879;45.876;12.300;2024-02-04T12:35:32;18.40;1.00
3727;DHT22;1879;45.876;12.300;2024-02-04T12:38:00;19.30;1.00
3727;DHT22;1879;45.876;12.300;2024-02-04T12:40:28;20.90;1.00
3727;DHT22;1879;45.876;12.300;2024-02-04T12:42:55;22.50;1.00
3727;DHT22;1879;45.876;12.300;2024-02-04T12:45:23;23.40;1.00
3727;DHT22;1879;45.876;12.300;2024-02-04T12:47:51;24.00;1.00
3727;DHT22;1879;45.876;12.300;2024-02-04T12:50:18;24.40;1.00
3727;DHT22;1879;45.876;12.300;2024-02-04T12:52:45;25.30;1.00
3727;DHT22;1879;45.876;12.300;2024-02-04T12:55:23;26.00;1.00
3727;DHT22;1879;45.876;12.300;2024-02-04T12:58:01;26.80;1.00
3727;DHT22;1879;45.876;12.300;2024-02-04T13:00:29;27.20;1.00
3727;DHT22;1879;45.876;12.300;2024-02-04T13:02:56;27.10;1.00
3727;DHT22;1879;45.876;12.300;2024-02-04T13:05:23;26.40;1.00
3727;DHT22;1879;45.876;12.300;2024-02-04T13:07:53;25.70;1.00
3727;DHT22;1879;45.876;12.300;2024-02-04T13:10:22;25.40;1.00
3727;DHT22;1879;45.876;12.300;2024-02-04T13:13:00;25.70;1.00
3727;DHT22;1879;45.876;12.300;2024-02-04T13:15:27;25.70;1.00
3727;DHT22;1879;45.876;12.300;2024-02-04T13:17:54;25.90;1.00
3727;DHT22;1879;45.876;12.300;2024-02-04T13:20:22;25.40;1.00
3727;DHT22;1879;45.876;12.300;2024-02-04T13:22:49;24.90;1.00
3727;DHT22;1879;45.876;12.300;2024-02-04T13:25:16;24.70;1.00
3727;DHT22;1879;45.876;12.300;2024-02-04T13:27:43;25.00;1.00
3727;DHT22;1879;45.876;12.300;2024-02-04T13:30:12;25.30;1.00
3727;DHT22;1879;45.876;12.300;2024-02-04T13:32:39;25.20;1.00
3727;DHT22;1879;45.876;12.300;2024-02-04T13:35:07;25.00;1.00
3727;DHT22;1879;45.876;12.300;2024-02-04T13:37:35;24.50;1.00
3727;DHT22;1879;45.876;12.300;2024-02-04T13:40:03;23.90;1.00
3727;DHT22;1879;45.876;12.300;2024-02-04T13:42:31;23.60;1.00
3727;DHT22;1879;45.876;12.300;2024-02-04T13:44:59;23.70;1.00
3727;DHT22;1879;45.876;12.300;2024-02-04T13:47:28;24.10;1.00
3727;DHT22;1879;45.876;12.300;2024-02-04T13:49:55;24.20;1.00
3727;DHT22;1879;45.876;12.300;2024-02-04T13:52:22;24.50;1.00
3727;DHT22;1879;45.876;12.300;2024-02-04T13:54:49;24.90;1.00
3727;DHT22;1879;45.876;12.300;2024-02-04T13:57:16;25.20;1.00
3727;DHT22;1879;45.876;12.300;2024-02-04T13:59:43;24.60;1.00
3727;DHT22;1879;45.876;12.300;2024-02-04T14:02:10;24.00;1.00
3727;DHT22;1879;45.876;12.300;2024-02-04T14:04:38;23.50;1.00
3727;DHT22;1879;45.876;12.300;2024-02-04T14:07:05;23.20;1.00
3727;DHT22;1879;45.876;12.300;2024-02-04T14:09:32;22.80;1.00
3727;DHT22;1879;45.876;12.300;2024-02-04T14:11:59;22.00;1.00
3727;DHT22;1879;45.876;12.300;2024-02-04T14:14:26;21.70;1.00
3727;DHT22;1879;45.876;12.300;2024-02-04T14:16:52;21.70;1.00
3727;DHT22;1879;45.876;12.300;2024-02-04T14:19:19;21.50;1.00
3727;DHT22;1879;45.876;12.300;2024-02-04T14:21:47;21.50;1.00
3727;DHT22;1879;45.876;12.300;2024-02-04T14:24:14;21.30;1.00
3727;DHT22;1879;45.876;12.300;2024-02-04T14:26:41;21.00;1.00
3727;DHT22;1879;45.876;12.300;2024-02-04T14:29:09;20.60;1.00
3727;DHT22;1879;45.876;12.300;2024-02-04T14:31:36;20.10;1.00
3727;DHT22;1879;45.876;12.300;2024-02-04T14:34:03;19.80;1.00
3727;DHT22;1879;45.876;12.300;2024-02-04T14:36:30;19.60;1.00
3727;DHT22;1879;45.876;12.300;2024-02-04T14:38:58;19.20;1.00
3727;DHT22;1879;45.876;12.300;2024-02-04T14:41:27;18.70;1.00
3727;DHT22;1879;45.876;12.300;2024-02-04T14:43:53;18.20;1.00
3727;DHT22;1879;45.876;12.300;2024-02-04T14:46:20;17.80;1.00
3727;DHT22;1879;45.876;12.300;2024-02-04T14:48:47;17.30;1.00
3727;DHT22;1879;45.876;12.300;2024-02-04T14:51:14;17.20;1.00
3727;DHT22;1879;45.876;12.300;2024-02-04T14:53:41;17.10;1.00
3727;DHT22;1879;45.876;12.300;2024-02-04T14:56:09;17.30;1.00
3727;DHT22;1879;45.876;12.300;2024-02-04T14:58:36;17.30;1.00
3727;DHT22;1879;45.876;12.300;2024-02-04T15:01:04;17.20;1.00
3727;DHT22;1879;45.876;12.300;2024-02-04T15:03:30;17.10;1.00
3727;DHT22;1879;45.876;12.300;2024-02-04T15:05:57;16.60;1.00
3727;DHT22;1879;45.876;12.300;2024-02-04T15:08:24;16.30;1.00
3727;DHT22;1879;45.876;12.300;2024-02-04T15:10:51;15.90;1.00
3727;DHT22;1879;45.876;12.300;2024-02-04T15:13:20;15.60;1.00
3727;DHT22;1879;45.876;12.300;2024-02-04T15:15:48;15.30;1.00
3727;DHT22;1879;45.876;12.300;2024-02-04T15:18:15;15.00;1.00
3727;DHT22;1879;45.876;12.300;2024-02-04T15:20:44;14.80;1.00
3727;DHT22;1879;45.876;12.300;2024-02-04T15:23:11;14.50;1.00
3727;DHT22;1879;45.876;12.300;2024-02-04T15:25:39;14.40;1.00
3727;DHT22;1879;45.876;12.300;2024-02-04T15:28:09;14.20;1.00
3727;DHT22;1879;45.876;12.300;2024-02-04T15:30:41;14.00;1.00
3727;DHT22;1879;45.876;12.300;2024-02-04T15:33:09;13.90;1.00
3727;DHT22;1879;45.876;12.300;2024-02-04T15:35:36;13.70;1.00
3727;DHT22;1879;45.876;12.300;2024-02-04T15:38:03;13.50;1.00
3727;DHT22;1879;45.876;12.300;2024-02-04T15:40:30;13.30;1.00
3727;DHT22;1879;45.876;12.300;2024-02-04T15:42:57;13.10;1.00
3727;DHT22;1879;45.876;12.300;2024-02-04T15:45:26;12.90;1.00
3727;DHT22;1879;45.876;12.300;2024-02-04T15:47:55;12.70;1.00
3727;DHT22;1879;45.876;12.300;2024-02-04T15:50:23;12.70;1.00
3727;DHT22;1879;45.876;12.300;2024-02-04T15:52:51;12.50;1.00
3727;DHT22;1879;45.876;12.300;2024-02-04T15:55:19;12.40;19.50
3727;DHT22;1879;45.876;12.300;2024-02-04T15:57:49;12.20;98.30
3727;DHT22;1879;45.876;12.300;2024-02-04T16:00:17;12.10;99.90
3727;DHT22;1879;45.876;12.300;2024-02-04T16:02:48;12.00;99.90
3727;DHT22;1879;45.876;12.300;2024-02-04T16:05:18;11.80;99.90
3727;DHT22;1879;45.876;12.300;2024-02-04T16:07:47;11.70;99.90
3727;DHT22;1879;45.876;12.300;2024-02-04T16:10:15;11.60;1.00
3727;DHT22;1879;45.876;12.300;2024-02-04T16:12:53;11.50;1.00
3727;DHT22;1879;45.876;12.300;2024-02-04T16:15:23;11.40;1.00